createdAt,value
2019-06-26T00:01:11.769Z,78.90
2019-06-26T00:03:39.795Z,79.00
2019-06-26T00:06:07.661Z,79.40
2019-06-26T00:08:35.601Z,79.00
2019-06-26T00:11:03.603Z,79.30
2019-06-26T00:13:31.463Z,79.20
2019-06-26T00:15:59.426Z,79.40
2019-06-26T00:18:27.326Z,80.20
2019-06-26T00:20:55.202Z,80.80
2019-06-26T00:23:23.070Z,82.40
2019-06-26T00:25:50.938Z,82.60
2019-06-26T00:28:18.874Z,82.90
2019-06-26T00:30:46.936Z,83.30
2019-06-26T00:33:14.892Z,83.00
2019-06-26T00:35:42.822Z,82.30
2019-06-26T00:38:10.720Z,82.70
2019-06-26T00:40:38.641Z,82.90
2019-06-26T00:43:06.862Z,82.30
2019-06-26T00:45:34.800Z,82.50
2019-06-26T00:48:02.942Z,82.50
2019-06-26T00:50:30.791Z,83.30
2019-06-26T00:52:58.661Z,84.40
2019-06-26T00:55:26.505Z,84.40
2019-06-26T00:57:54.371Z,85.00
2019-06-26T01:00:31.747Z,85.20
2019-06-26T01:02:59.654Z,85.90
2019-06-26T01:05:28.719Z,86.90
2019-06-26T01:07:56.618Z,86.80
2019-06-26T01:10:25.085Z,87.50
2019-06-26T01:12:52.968Z,87.80
2019-06-26T01:15:20.884Z,87.70
2019-06-26T01:17:48.793Z,87.90
2019-06-26T01:20:16.786Z,88.40
2019-06-26T01:22:44.673Z,88.40
2019-06-26T01:25:12.875Z,89.00
2019-06-26T01:27:40.776Z,89.90
2019-06-26T01:30:09.402Z,90.00
2019-06-26T01:32:37.296Z,89.90
2019-06-26T01:35:05.889Z,89.60
2019-06-26T01:37:33.789Z,90.00
2019-06-26T01:40:01.730Z,89.90
2019-06-26T01:42:29.562Z,90.40
2019-06-26T01:44:57.618Z,90.50
2019-06-26T01:47:25.456Z,90.60
2019-06-26T01:49:53.367Z,90.80
2019-06-26T01:52:21.382Z,90.50
2019-06-26T01:54:49.347Z,90.60
2019-06-26T01:57:17.212Z,90.50
2019-06-26T01:59:45.131Z,90.70
2019-06-26T02:02:14.137Z,90.90
2019-06-26T02:04:42.098Z,90.90
2019-06-26T02:07:10.001Z,91.00
2019-06-26T02:09:37.914Z,91.00
2019-06-26T02:12:05.871Z,91.10
2019-06-26T02:14:33.875Z,91.10
2019-06-26T02:17:02.981Z,91.00
2019-06-26T02:19:30.900Z,91.40
2019-06-26T02:21:58.709Z,91.40
2019-06-26T02:24:26.561Z,91.30
2019-06-26T02:26:54.425Z,91.20
2019-06-26T02:29:22.349Z,91.20
2019-06-26T02:31:50.187Z,91.40
2019-06-26T02:34:18.140Z,91.50
2019-06-26T02:36:46.006Z,91.70
2019-06-26T02:39:14.944Z,91.90
2019-06-26T02:41:42.776Z,92.00
2019-06-26T02:44:10.629Z,92.10
2019-06-26T02:46:38.494Z,92.10
2019-06-26T02:49:06.382Z,92.10
2019-06-26T02:51:34.259Z,92.10
2019-06-26T02:54:02.154Z,92.20
2019-06-26T02:56:30.083Z,92.20
2019-06-26T02:58:57.986Z,92.30
2019-06-26T03:01:25.900Z,92.40
2019-06-26T03:03:53.745Z,92.30
2019-06-26T03:06:21.714Z,92.40
2019-06-26T03:08:49.635Z,92.50
2019-06-26T03:11:17.551Z,92.80
2019-06-26T03:13:45.383Z,92.80
2019-06-26T03:16:14.156Z,92.80
2019-06-26T03:18:42.021Z,92.90
2019-06-26T03:21:09.943Z,92.80
2019-06-26T03:23:37.756Z,92.50
2019-06-26T03:26:05.693Z,92.80
2019-06-26T03:28:33.682Z,92.80
2019-06-26T03:31:02.205Z,92.80
2019-06-26T03:33:30.115Z,92.90
2019-06-26T03:35:58.029Z,92.70
2019-06-26T03:38:26.041Z,92.70
2019-06-26T03:40:53.975Z,92.80
2019-06-26T03:43:21.991Z,92.70
2019-06-26T03:45:49.906Z,92.60
2019-06-26T03:48:17.850Z,92.50
2019-06-26T03:50:45.742Z,92.70
2019-06-26T03:53:13.701Z,92.60
2019-06-26T03:55:41.682Z,92.60
2019-06-26T03:58:09.547Z,92.50
2019-06-26T04:00:40.218Z,92.30
2019-06-26T04:03:08.329Z,92.00
2019-06-26T04:05:36.329Z,92.00
2019-06-26T04:08:04.376Z,91.80
2019-06-26T04:10:32.419Z,91.60
2019-06-26T04:13:00.378Z,91.30
2019-06-26T04:15:41.521Z,91.20
2019-06-26T04:17:58.134Z,91.00
2019-06-26T04:20:26.141Z,91.00
2019-06-26T04:22:54.028Z,91.10
2019-06-26T04:25:22.006Z,91.10
2019-06-26T04:27:49.880Z,90.90
2019-06-26T04:30:18.083Z,90.40
2019-06-26T04:32:45.997Z,89.90
2019-06-26T04:35:15.995Z,89.70
2019-06-26T04:37:43.969Z,89.50
2019-06-26T04:40:13.581Z,89.50
2019-06-26T04:42:41.466Z,88.80
2019-06-26T04:45:10.136Z,88.40
2019-06-26T04:47:37.970Z,87.90
2019-06-26T04:50:06.291Z,87.10
2019-06-26T04:52:34.202Z,85.10
2019-06-26T04:55:03.707Z,85.10
2019-06-26T04:57:31.644Z,84.60
2019-06-26T04:59:59.789Z,84.50
2019-06-26T05:02:29.009Z,83.50
2019-06-26T05:04:56.846Z,84.30
2019-06-26T05:07:24.789Z,84.20
2019-06-26T05:09:52.689Z,83.80
2019-06-26T05:12:20.636Z,83.00
2019-06-26T05:14:48.523Z,81.80
2019-06-26T05:17:16.429Z,82.00
2019-06-26T05:19:45.038Z,80.60
2019-06-26T05:22:12.918Z,79.70
2019-06-26T05:24:40.821Z,78.80
2019-06-26T05:27:08.807Z,78.00
2019-06-26T05:29:36.730Z,77.90
2019-06-26T05:32:04.804Z,77.60
2019-06-26T05:34:32.671Z,77.00
2019-06-26T05:37:00.569Z,77.50
2019-06-26T05:39:28.651Z,76.40
2019-06-26T05:41:56.495Z,76.00
2019-06-26T05:44:24.370Z,74.60
2019-06-26T05:46:52.235Z,73.50
2019-06-26T05:49:20.120Z,73.00
2019-06-26T05:51:47.998Z,72.90
2019-06-26T05:54:15.904Z,72.50
2019-06-26T05:56:45.451Z,71.90
2019-06-26T05:59:13.525Z,71.10
2019-06-26T06:01:41.382Z,71.20
2019-06-26T06:04:22.668Z,71.80
2019-06-26T06:06:50.612Z,70.80
2019-06-26T06:09:18.449Z,70.70
2019-06-26T06:11:46.333Z,69.60
2019-06-26T06:14:14.230Z,68.40
2019-06-26T06:16:47.431Z,67.50
2019-06-26T06:19:11.930Z,65.80
2019-06-26T06:21:39.809Z,66.40
2019-06-26T06:24:07.732Z,66.10
2019-06-26T06:26:35.771Z,66.30
2019-06-26T06:29:03.763Z,65.80
2019-06-26T06:31:31.641Z,64.70
2019-06-26T06:34:00.667Z,64.80
2019-06-26T06:36:28.804Z,64.20
2019-06-26T06:38:56.778Z,63.60
2019-06-26T06:41:24.662Z,62.30
2019-06-26T06:43:52.528Z,61.30
2019-06-26T06:46:20.398Z,60.30
2019-06-26T06:48:48.280Z,59.80
2019-06-26T06:51:16.220Z,58.40
2019-06-26T06:53:44.290Z,56.90
2019-06-26T06:56:12.274Z,58.20
2019-06-26T06:58:40.166Z,58.40
2019-06-26T07:01:08.166Z,58.60
2019-06-26T07:03:36.264Z,58.10
2019-06-26T07:06:04.193Z,55.70
2019-06-26T07:08:32.215Z,56.40
2019-06-26T07:11:00.107Z,54.20
2019-06-26T07:13:31.060Z,53.20
2019-06-26T07:15:58.955Z,53.80
2019-06-26T07:18:27.019Z,54.30
2019-06-26T07:20:54.975Z,53.10
2019-06-26T07:23:22.842Z,51.40
2019-06-26T07:25:51.042Z,50.20
2019-06-26T07:28:19.687Z,51.30
2019-06-26T07:30:47.880Z,51.20
2019-06-26T07:33:15.878Z,51.80
2019-06-26T07:35:43.984Z,51.50
2019-06-26T07:38:11.941Z,50.80
2019-06-26T07:40:40.140Z,49.90
2019-06-26T07:43:08.094Z,49.70
2019-06-26T07:45:36.473Z,49.10
2019-06-26T07:48:04.471Z,49.20
2019-06-26T07:50:32.818Z,48.20
2019-06-26T07:53:01.513Z,47.70
2019-06-26T07:55:29.482Z,47.50
2019-06-26T07:57:57.583Z,47.70
2019-06-26T08:00:26.486Z,47.80
2019-06-26T08:02:54.405Z,47.80
2019-06-26T08:05:22.390Z,47.60
2019-06-26T08:07:50.225Z,46.80
2019-06-26T08:10:18.852Z,46.30
2019-06-26T08:12:47.029Z,46.10
2019-06-26T08:15:15.235Z,46.60
2019-06-26T08:17:59.426Z,47.00
2019-06-26T08:20:14.014Z,45.10
2019-06-26T08:22:42.049Z,45.20
2019-06-26T08:25:10.343Z,45.20
2019-06-26T08:27:38.503Z,44.80
2019-06-26T08:30:06.980Z,45.30
2019-06-26T08:32:34.920Z,44.90
2019-06-26T08:35:03.064Z,44.50
2019-06-26T08:37:31.045Z,44.40
2019-06-26T08:39:58.935Z,44.40
2019-06-26T08:42:26.892Z,43.60
2019-06-26T08:44:54.940Z,43.70
2019-06-26T08:47:22.885Z,43.10
2019-06-26T08:49:50.882Z,42.60
2019-06-26T08:52:18.872Z,42.20
2019-06-26T08:54:46.830Z,42.10
2019-06-26T08:57:14.785Z,41.40
2019-06-26T08:59:42.694Z,41.90
2019-06-26T09:02:10.827Z,41.60
2019-06-26T09:04:38.808Z,40.90
2019-06-26T09:07:06.869Z,40.70
2019-06-26T09:09:35.015Z,40.30
2019-06-26T09:12:03.016Z,40.10
2019-06-26T09:14:33.039Z,40.00
2019-06-26T09:17:01.262Z,39.80
2019-06-26T09:19:30.386Z,39.00
2019-06-26T09:21:58.480Z,38.60
2019-06-26T09:24:26.473Z,38.30
2019-06-26T09:26:55.341Z,39.60
2019-06-26T09:29:24.117Z,38.30
2019-06-26T09:31:52.205Z,37.70
2019-06-26T09:34:20.093Z,35.90
2019-06-26T09:36:47.993Z,35.00
2019-06-26T09:39:16.116Z,35.20
2019-06-26T09:41:44.169Z,34.00
2019-06-26T09:44:12.297Z,33.00
2019-06-26T09:46:40.259Z,31.60
2019-06-26T09:49:08.263Z,30.90
2019-06-26T09:51:36.327Z,31.00
2019-06-26T09:54:04.389Z,31.60
2019-06-26T09:56:32.439Z,32.30
2019-06-26T09:59:00.474Z,32.30
2019-06-26T10:01:29.887Z,31.10
2019-06-26T10:03:57.852Z,32.30
2019-06-26T10:06:25.713Z,31.80
2019-06-26T10:08:54.564Z,32.20
2019-06-26T10:11:22.666Z,34.00
2019-06-26T10:13:50.695Z,32.50
2019-06-26T10:16:18.966Z,32.10
2019-06-26T10:18:46.921Z,32.20
2019-06-26T10:21:15.007Z,31.90
2019-06-26T10:23:42.974Z,31.00
2019-06-26T10:26:10.903Z,31.30
2019-06-26T10:28:38.975Z,32.70
2019-06-26T10:31:08.496Z,32.60
2019-06-26T10:33:36.568Z,32.50
2019-06-26T10:36:04.544Z,32.80
2019-06-26T10:38:32.480Z,32.30
2019-06-26T10:41:01.403Z,32.40
2019-06-26T10:43:29.294Z,33.40
2019-06-26T10:45:57.257Z,32.50
2019-06-26T10:48:25.138Z,33.20
2019-06-26T10:50:58.394Z,32.20
2019-06-26T10:53:22.804Z,31.80
2019-06-26T10:55:50.752Z,32.20
2019-06-26T10:58:18.696Z,32.10
2019-06-26T11:00:46.708Z,31.60
2019-06-26T11:03:14.724Z,31.40
2019-06-26T11:05:43.250Z,33.30
2019-06-26T11:08:11.181Z,31.50
2019-06-26T11:10:39.199Z,33.00
2019-06-26T11:13:07.245Z,32.60
2019-06-26T11:15:35.197Z,31.90
2019-06-26T11:18:03.139Z,31.10
2019-06-26T11:20:31.321Z,31.90
2019-06-26T11:22:59.442Z,31.90
2019-06-26T11:25:27.379Z,29.90
2019-06-26T11:27:55.313Z,29.60
2019-06-26T11:30:24.274Z,30.10
2019-06-26T11:32:52.197Z,29.30
2019-06-26T11:35:20.128Z,28.90
2019-06-26T11:37:48.090Z,28.70
2019-06-26T11:40:16.103Z,29.10
2019-06-26T11:42:44.188Z,28.80
2019-06-26T11:45:12.571Z,28.60
2019-06-26T11:47:40.473Z,28.20
2019-06-26T11:50:09.124Z,28.80
2019-06-26T11:52:37.032Z,28.90
2019-06-26T11:55:05.599Z,28.20
2019-06-26T11:57:33.493Z,28.70
2019-06-26T12:00:01.959Z,29.40
2019-06-26T12:02:30.210Z,29.50
2019-06-26T12:04:58.086Z,28.90
2019-06-26T12:07:26.195Z,28.90
2019-06-26T12:09:54.303Z,28.40
2019-06-26T12:12:22.159Z,29.50
2019-06-26T12:14:51.187Z,27.60
2019-06-26T12:17:19.234Z,27.70
2019-06-26T12:19:47.356Z,27.50
2019-06-26T12:22:18.015Z,27.00
2019-06-26T12:24:45.905Z,26.60
2019-06-26T12:27:13.791Z,26.80
2019-06-26T12:29:41.700Z,27.00
2019-06-26T12:32:09.738Z,27.10
2019-06-26T12:34:37.613Z,26.70
2019-06-26T12:37:05.517Z,26.80
2019-06-26T12:39:33.421Z,27.50
2019-06-26T12:42:01.396Z,27.60
2019-06-26T12:44:29.401Z,27.80
2019-06-26T12:46:57.275Z,26.60
2019-06-26T12:49:25.373Z,26.60
2019-06-26T12:51:53.356Z,27.10
2019-06-26T12:54:21.264Z,27.30
2019-06-26T12:56:49.177Z,27.70
2019-06-26T12:59:17.093Z,27.00
2019-06-26T13:01:44.995Z,27.10
2019-06-26T13:04:12.949Z,26.70
2019-06-26T13:06:40.807Z,26.00
2019-06-26T13:09:08.741Z,26.80
2019-06-26T13:11:36.835Z,26.80
2019-06-26T13:14:04.908Z,26.00
2019-06-26T13:16:32.765Z,25.80
2019-06-26T13:19:00.692Z,25.60
2019-06-26T13:21:28.575Z,24.00
2019-06-26T13:23:56.397Z,24.20
2019-06-26T13:26:24.344Z,24.80
2019-06-26T13:28:52.208Z,23.30
2019-06-26T13:31:20.155Z,23.60
2019-06-26T13:33:47.992Z,23.40
2019-06-26T13:36:16.010Z,22.60
2019-06-26T13:38:43.922Z,22.00
2019-06-26T13:41:11.874Z,21.90
2019-06-26T13:43:40.807Z,21.60
2019-06-26T13:46:08.701Z,21.60
2019-06-26T13:48:36.666Z,21.00
2019-06-26T13:51:09.441Z,20.10
2019-06-26T13:53:34.270Z,19.90
2019-06-26T13:56:02.529Z,21.20
2019-06-26T13:58:30.411Z,20.40
2019-06-26T14:00:58.308Z,20.40
2019-06-26T14:03:26.129Z,20.20
2019-06-26T14:05:53.990Z,20.50
2019-06-26T14:08:21.805Z,20.80
2019-06-26T14:10:49.664Z,20.90
2019-06-26T14:13:17.672Z,21.40
2019-06-26T14:15:45.513Z,20.70
2019-06-26T14:18:13.393Z,19.30
2019-06-26T14:20:41.270Z,19.00
2019-06-26T14:23:09.244Z,18.40
2019-06-26T14:25:37.185Z,19.00
2019-06-26T14:28:05.054Z,19.40
2019-06-26T14:30:32.926Z,19.80
2019-06-26T14:33:00.762Z,19.20
2019-06-26T14:35:28.586Z,19.30
2019-06-26T14:37:56.426Z,19.10
2019-06-26T14:40:24.345Z,19.50
2019-06-26T14:42:52.189Z,19.60
2019-06-26T14:45:20.119Z,18.90
2019-06-26T14:47:47.934Z,17.90
2019-06-26T14:50:16.138Z,17.90
2019-06-26T14:52:46.036Z,19.40
2019-06-26T14:55:14.170Z,19.50
2019-06-26T14:57:42.055Z,19.50
2019-06-26T15:00:10.234Z,19.10
2019-06-26T15:02:38.107Z,18.40
2019-06-26T15:05:06.759Z,18.60
2019-06-26T15:07:34.677Z,20.00
2019-06-26T15:10:02.533Z,20.30
2019-06-26T15:12:30.368Z,20.30
2019-06-26T15:14:58.181Z,21.20
2019-06-26T15:17:26.017Z,21.50
2019-06-26T15:19:53.831Z,22.20
2019-06-26T15:22:22.820Z,22.10
2019-06-26T15:24:50.681Z,22.00
2019-06-26T15:27:18.822Z,22.10
2019-06-26T15:29:46.723Z,20.80
2019-06-26T15:32:14.530Z,21.30
2019-06-26T15:34:42.457Z,21.80
2019-06-26T15:37:10.302Z,22.10
2019-06-26T15:39:38.219Z,21.70
2019-06-26T15:42:06.107Z,21.90
2019-06-26T15:44:33.973Z,21.30
2019-06-26T15:47:01.813Z,20.40
2019-06-26T15:49:29.694Z,19.60
2019-06-26T15:52:13.769Z,19.30
2019-06-26T15:54:27.349Z,20.20
2019-06-26T15:56:55.232Z,20.30
2019-06-26T15:59:23.094Z,22.40
2019-06-26T16:01:50.934Z,23.40
2019-06-26T16:04:22.765Z,24.40
2019-06-26T16:06:50.604Z,24.20
2019-06-26T16:09:18.435Z,23.50
2019-06-26T16:11:46.281Z,23.20
2019-06-26T16:14:14.195Z,23.40
2019-06-26T16:16:43.960Z,22.10
2019-06-26T16:19:15.052Z,21.80
2019-06-26T16:21:42.925Z,21.00
2019-06-26T16:24:10.738Z,20.50
2019-06-26T16:26:38.689Z,20.10
2019-06-26T16:29:06.499Z,18.80
2019-06-26T16:31:34.713Z,19.10
2019-06-26T16:34:02.549Z,19.00
2019-06-26T16:36:30.422Z,19.10
2019-06-26T16:38:58.284Z,18.50
2019-06-26T16:41:26.170Z,18.90
2019-06-26T16:43:54.076Z,19.10
2019-06-26T16:46:21.968Z,19.10
2019-06-26T16:48:49.795Z,18.90
2019-06-26T16:51:17.689Z,18.80
2019-06-26T16:53:45.575Z,18.90
2019-06-26T16:56:13.469Z,20.10
2019-06-26T16:58:41.366Z,20.00
2019-06-26T17:01:09.282Z,20.00
2019-06-26T17:03:37.184Z,21.00
2019-06-26T17:06:05.161Z,22.40
2019-06-26T17:08:34.132Z,22.10
2019-06-26T17:11:02.166Z,23.60
2019-06-26T17:13:29.991Z,23.70
2019-06-26T17:15:57.899Z,24.60
2019-06-26T17:18:25.764Z,24.10
2019-06-26T17:20:53.673Z,25.20
2019-06-26T17:23:21.547Z,25.40
2019-06-26T17:25:49.517Z,25.10
2019-06-26T17:28:17.316Z,24.30
2019-06-26T17:30:46.317Z,23.90
2019-06-26T17:33:14.420Z,23.20
2019-06-26T17:35:42.339Z,23.10
2019-06-26T17:38:10.209Z,24.00
2019-06-26T17:40:38.117Z,23.90
2019-06-26T17:43:12.251Z,24.00
2019-06-26T17:45:35.921Z,23.50
2019-06-26T17:48:03.793Z,23.50
2019-06-26T17:50:34.835Z,23.90
2019-06-26T17:53:02.752Z,23.90
2019-06-26T17:55:30.616Z,24.80
2019-06-26T17:57:58.616Z,24.70
2019-06-26T18:00:34.026Z,25.30
2019-06-26T18:03:02.094Z,25.50
2019-06-26T18:05:30.121Z,25.50
2019-06-26T18:07:58.147Z,25.20
2019-06-26T18:10:26.109Z,24.90
2019-06-26T18:12:54.076Z,24.90
2019-06-26T18:15:22.343Z,25.00
2019-06-26T18:17:50.405Z,24.70
2019-06-26T18:20:18.403Z,24.80
2019-06-26T18:22:46.640Z,25.00
2019-06-26T18:25:16.695Z,25.10
2019-06-26T18:27:44.841Z,25.20
2019-06-26T18:30:13.066Z,25.40
2019-06-26T18:32:41.143Z,25.90
2019-06-26T18:35:09.539Z,26.40
2019-06-26T18:37:37.532Z,26.60
2019-06-26T18:40:05.720Z,27.40
2019-06-26T18:42:33.686Z,29.80
2019-06-26T18:45:01.665Z,30.30
2019-06-26T18:47:30.652Z,30.50
2019-06-26T18:49:58.610Z,31.40
2019-06-26T18:52:27.062Z,32.40
2019-06-26T18:54:55.448Z,33.00
2019-06-26T18:57:23.515Z,33.70
2019-06-26T18:59:51.557Z,34.00
2019-06-26T19:02:19.566Z,34.30
2019-06-26T19:04:47.448Z,34.40
2019-06-26T19:07:15.525Z,34.50
2019-06-26T19:09:43.582Z,34.50
2019-06-26T19:12:11.551Z,35.10
2019-06-26T19:14:39.733Z,34.70
2019-06-26T19:17:07.775Z,34.70
2019-06-26T19:19:35.625Z,34.10
2019-06-26T19:22:04.045Z,34.20
2019-06-26T19:24:31.975Z,34.80
2019-06-26T19:26:59.984Z,34.10
2019-06-26T19:29:30.538Z,34.00
2019-06-26T19:31:58.507Z,34.20
2019-06-26T19:34:26.476Z,34.30
2019-06-26T19:36:54.407Z,34.20
2019-06-26T19:39:22.400Z,34.50
2019-06-26T19:41:50.542Z,34.70
2019-06-26T19:44:18.374Z,35.30
2019-06-26T19:46:46.301Z,35.30
2019-06-26T19:49:14.192Z,35.40
2019-06-26T19:51:42.180Z,35.50
2019-06-26T19:54:22.900Z,35.70
2019-06-26T19:56:54.321Z,36.50
2019-06-26T19:59:22.343Z,37.10
2019-06-26T20:01:51.442Z,37.30
2019-06-26T20:04:19.549Z,37.50
2019-06-26T20:06:48.615Z,37.70
2019-06-26T20:09:16.509Z,37.70
2019-06-26T20:11:44.550Z,38.00
2019-06-26T20:14:12.575Z,38.50
2019-06-26T20:16:40.585Z,38.70
2019-06-26T20:19:08.809Z,39.10
2019-06-26T20:21:37.183Z,39.00
2019-06-26T20:24:08.012Z,39.30
2019-06-26T20:26:36.186Z,39.40
2019-06-26T20:29:04.087Z,39.50
2019-06-26T20:31:32.861Z,39.80
2019-06-26T20:34:01.025Z,40.00
2019-06-26T20:36:29.153Z,40.30
2019-06-26T20:38:57.214Z,40.60
2019-06-26T20:41:25.472Z,41.00
2019-06-26T20:43:54.819Z,41.50
2019-06-26T20:46:25.597Z,41.90
2019-06-26T20:48:54.319Z,42.00
2019-06-26T20:51:22.637Z,42.30
2019-06-26T20:53:50.653Z,42.40
2019-06-26T20:56:18.724Z,42.70
2019-06-26T20:58:46.762Z,42.60
2019-06-26T21:01:14.929Z,42.90
2019-06-26T21:03:43.386Z,43.10
2019-06-26T21:06:13.540Z,43.40
2019-06-26T21:08:41.530Z,43.30
2019-06-26T21:11:09.529Z,44.20
2019-06-26T21:13:37.824Z,44.30
2019-06-26T21:16:06.153Z,44.10
2019-06-26T21:18:34.140Z,44.50
2019-06-26T21:21:02.219Z,44.70
2019-06-26T21:23:30.429Z,45.00
2019-06-26T21:25:58.632Z,45.60
2019-06-26T21:28:26.720Z,45.70
2019-06-26T21:30:55.301Z,45.70
2019-06-26T21:33:23.360Z,45.90
2019-06-26T21:35:51.698Z,45.70
2019-06-26T21:38:19.810Z,45.90
2019-06-26T21:40:48.773Z,45.70
2019-06-26T21:43:16.894Z,46.30
2019-06-26T21:45:45.043Z,46.10
2019-06-26T21:48:15.131Z,46.30
2019-06-26T21:50:43.887Z,46.20
2019-06-26T21:53:12.377Z,46.10
2019-06-26T21:55:42.080Z,46.10
2019-06-26T21:58:28.958Z,47.60
2019-06-26T22:01:15.942Z,46.60
2019-06-26T22:04:02.508Z,46.10
2019-06-26T22:06:35.604Z,46.40
2019-06-26T22:09:23.421Z,46.50
2019-06-26T22:11:52.668Z,47.20
2019-06-26T22:14:20.685Z,47.30
2019-06-26T22:16:48.727Z,47.80
2019-06-26T22:19:16.763Z,48.20
2019-06-26T22:21:44.799Z,48.20
2019-06-26T22:24:12.765Z,48.50
2019-06-26T22:26:41.897Z,48.80
2019-06-26T22:29:09.774Z,48.90
2019-06-26T22:31:37.821Z,49.30
2019-06-26T22:34:05.767Z,49.40
2019-06-26T22:36:33.672Z,49.90
2019-06-26T22:39:01.645Z,50.10
2019-06-26T22:41:31.784Z,50.60
2019-06-26T22:43:59.684Z,50.80
2019-06-26T22:46:27.638Z,51.20
2019-06-26T22:48:55.548Z,51.50
2019-06-26T22:51:23.562Z,51.90
2019-06-26T22:53:51.531Z,52.20
2019-06-26T22:56:19.439Z,52.40
2019-06-26T22:58:47.434Z,52.90
2019-06-26T23:01:15.376Z,53.20
2019-06-26T23:03:43.266Z,53.10
2019-06-26T23:06:11.145Z,53.50
2019-06-26T23:08:40.275Z,53.60
2019-06-26T23:11:08.206Z,53.90
2019-06-26T23:13:36.083Z,54.10
2019-06-26T23:16:04.244Z,54.30
2019-06-26T23:18:32.160Z,54.20
2019-06-26T23:21:00.019Z,54.70
2019-06-26T23:23:27.931Z,55.00
2019-06-26T23:25:55.851Z,55.30
2019-06-26T23:28:23.799Z,55.60
2019-06-26T23:30:51.751Z,55.90
2019-06-26T23:33:19.641Z,56.00
2019-06-26T23:35:47.629Z,56.20
2019-06-26T23:38:15.578Z,56.40
2019-06-26T23:40:44.571Z,57.10
2019-06-26T23:43:12.462Z,56.90
2019-06-26T23:45:40.658Z,57.00
2019-06-26T23:48:08.499Z,57.00
2019-06-26T23:50:36.402Z,57.20
2019-06-26T23:53:04.283Z,57.00
2019-06-26T23:55:32.167Z,56.80
2019-06-26T23:58:00.042Z,57.10
